aviador You're here:

KRME Decoded Metar

ROME in NY, USA
Report Time2018-05-26 16:53:00
UTC Time2018-05-26 17:21:50
Flight Rules vfr VFR
Wind290° at 09 kt
W.Decomp.*RWY 33: 8.0 kt HW 4.1 kt LCW
W.Rank290° ranks 4
Current wind is below 290° avg. (10.0)
Visibility9999 m
Phenomena:N/A
Clouds:N/A
Expected CloudBase > 4,400 ft AGL from Temp-Dew spread
CeilingNone
Temp26°C (ISA +12)
Dew Point15°C (51% RH)
AAT24.4°C
QNH1010 hPa
Density Alt2,221 ft
Elevation505 ft
Report Wrong Elevation
Raw Report
KRME 261653Z 29009KT 10SM CLR 26/15 A2982 RMK AO2 SLP094
T02610150=

Extra information for KRME:More info

Metar Taf Metar & Taf Last 4 Metars F.Rules Stats Wind Profile Meteogram Temp Stats Airport Information Weather charts Add Link Nearby VenuesMetar ALERT Operation Metar Decoded Social comments

AIRNAV info for KRME